sensor_id;sensor_type;location;lat;lon;timestamp;pressure;altitude;pressure_sealevel;temperature;humidity
60974;BME280;46846;51.528;5.076;2023-03-01T00:01:37;102582.22;;;1.03;68.37
60974;BME280;46846;51.528;5.076;2023-03-01T00:04:02;102594.47;;;1.04;68.25
60974;BME280;46846;51.528;5.076;2023-03-01T00:06:28;102580.28;;;0.97;68.48
60974;BME280;46846;51.528;5.076;2023-03-01T00:08:53;102583.75;;;0.96;68.71
60974;BME280;46846;51.528;5.076;2023-03-01T00:11:21;102584.53;;;0.93;68.68
60974;BME280;46846;51.528;5.076;2023-03-01T00:13:49;102591.59;;;0.96;68.67
60974;BME280;46846;51.528;5.076;2023-03-01T00:16:21;102594.16;;;0.94;68.69
60974;BME280;46846;51.528;5.076;2023-03-01T00:18:46;102590.63;;;0.92;68.75
60974;BME280;46846;51.528;5.076;2023-03-01T00:21:12;102592.47;;;0.97;68.51
60974;BME280;46846;51.528;5.076;2023-03-01T00:23:38;102586.31;;;0.94;68.73
60974;BME280;46846;51.528;5.076;2023-03-01T00:26:10;102588.00;;;0.92;68.70
60974;BME280;46846;51.528;5.076;2023-03-01T00:28:36;102585.31;;;0.91;69.13
60974;BME280;46846;51.528;5.076;2023-03-01T00:31:10;102583.63;;;0.93;68.96
60974;BME280;46846;51.528;5.076;2023-03-01T00:33:35;102583.47;;;0.88;68.91
60974;BME280;46846;51.528;5.076;2023-03-01T00:36:01;102588.84;;;0.91;69.06
60974;BME280;46846;51.528;5.076;2023-03-01T00:38:27;102592.25;;;0.89;69.02
60974;BME280;46846;51.528;5.076;2023-03-01T00:40:52;102591.34;;;0.88;68.68
60974;BME280;46846;51.528;5.076;2023-03-01T00:43:18;102584.25;;;0.86;69.13
60974;BME280;46846;51.528;5.076;2023-03-01T00:45:44;102595.56;;;0.85;69.29
60974;BME280;46846;51.528;5.076;2023-03-01T00:48:09;102590.31;;;0.83;69.05
60974;BME280;46846;51.528;5.076;2023-03-01T00:50:35;102590.31;;;0.83;69.01
60974;BME280;46846;51.528;5.076;2023-03-01T00:53:00;102593.78;;;0.84;68.80
60974;BME280;46846;51.528;5.076;2023-03-01T00:55:26;102589.34;;;0.81;69.05
60974;BME280;46846;51.528;5.076;2023-03-01T00:57:51;102587.63;;;0.81;69.25
60974;BME280;46846;51.528;5.076;2023-03-01T01:00:18;102584.22;;;0.84;69.05
60974;BME280;46846;51.528;5.076;2023-03-01T01:02:44;102577.06;;;0.80;68.74
60974;BME280;46846;51.528;5.076;2023-03-01T01:05:10;102571.00;;;0.81;68.80
60974;BME280;46846;51.528;5.076;2023-03-01T01:07:36;102566.59;;;0.80;69.17
60974;BME280;46846;51.528;5.076;2023-03-01T01:10:02;102563.09;;;0.79;68.73
60974;BME280;46846;51.528;5.076;2023-03-01T01:12:28;102563.91;;;0.78;69.39
60974;BME280;46846;51.528;5.076;2023-03-01T01:14:53;102561.25;;;0.77;69.27
60974;BME280;46846;51.528;5.076;2023-03-01T01:17:18;102556.03;;;0.77;68.85
60974;BME280;46846;51.528;5.076;2023-03-01T01:19:44;102553.25;;;0.72;69.32
60974;BME280;46846;51.528;5.076;2023-03-01T01:22:09;102552.44;;;0.75;69.12
60974;BME280;46846;51.528;5.076;2023-03-01T01:24:35;102547.19;;;0.75;68.93
60974;BME280;46846;51.528;5.076;2023-03-01T01:27:00;102546.25;;;0.73;69.14
60974;BME280;46846;51.528;5.076;2023-03-01T01:29:26;102541.94;;;0.73;68.92
60974;BME280;46846;51.528;5.076;2023-03-01T01:31:51;102535.78;;;0.73;69.25
60974;BME280;46846;51.528;5.076;2023-03-01T01:34:21;102536.72;;;0.75;68.50
60974;BME280;46846;51.528;5.076;2023-03-01T01:36:51;102536.56;;;0.70;69.09
60974;BME280;46846;51.528;5.076;2023-03-01T01:39:20;102529.53;;;0.69;69.08
60974;BME280;46846;51.528;5.076;2023-03-01T01:41:46;102530.31;;;0.66;69.04
60974;BME280;46846;51.528;5.076;2023-03-01T01:46:49;102516.44;;;0.69;68.63
60974;BME280;46846;51.528;5.076;2023-03-01T01:52:11;102505.75;;;0.63;69.01
60974;BME280;46846;51.528;5.076;2023-03-01T01:54:40;102509.34;;;0.65;68.73
60974;BME280;46846;51.528;5.076;2023-03-01T01:57:10;102507.50;;;0.62;68.98
60974;BME280;46846;51.528;5.076;2023-03-01T01:59:37;102508.34;;;0.61;68.66
60974;BME280;46846;51.528;5.076;2023-03-01T02:02:04;102504.75;;;0.59;68.94
60974;BME280;46846;51.528;5.076;2023-03-01T02:04:31;102508.28;;;0.60;68.97
60974;BME280;46846;51.528;5.076;2023-03-01T02:07:05;102508.97;;;0.54;69.78
60974;BME280;46846;51.528;5.076;2023-03-01T02:09:35;102502.88;;;0.55;69.16
60974;BME280;46846;51.528;5.076;2023-03-01T02:12:02;102501.97;;;0.54;69.17
60974;BME280;46846;51.528;5.076;2023-03-01T02:14:27;102496.66;;;0.51;69.55
60974;BME280;46846;51.528;5.076;2023-03-01T02:16:53;102491.47;;;0.53;69.55
60974;BME280;46846;51.528;5.076;2023-03-01T02:19:38;102487.03;;;0.50;69.70
60974;BME280;46846;51.528;5.076;2023-03-01T02:25:03;102480.03;;;0.51;69.55
60974;BME280;46846;51.528;5.076;2023-03-01T02:30:46;102478.25;;;0.50;68.99
60974;BME280;46846;51.528;5.076;2023-03-01T02:33:34;102476.38;;;0.46;69.43
60974;BME280;46846;51.528;5.076;2023-03-01T02:36:04;102484.28;;;0.47;69.49
60974;BME280;46846;51.528;5.076;2023-03-01T02:38:32;102486.06;;;0.48;68.81
60974;BME280;46846;51.528;5.076;2023-03-01T02:40:57;102486.06;;;0.48;68.99
60974;BME280;46846;51.528;5.076;2023-03-01T02:43:27;102484.25;;;0.46;68.96
60974;BME280;46846;51.528;5.076;2023-03-01T02:45:57;102486.88;;;0.46;69.34
60974;BME280;46846;51.528;5.076;2023-03-01T02:48:23;102485.81;;;0.40;68.73
60974;BME280;46846;51.528;5.076;2023-03-01T02:54:12;102497.22;;;0.43;69.10
60974;BME280;46846;51.528;5.076;2023-03-01T02:56:41;102490.81;;;0.34;69.06
60974;BME280;46846;51.528;5.076;2023-03-01T02:59:08;102495.28;;;0.37;68.86
60974;BME280;46846;51.528;5.076;2023-03-01T03:01:34;102491.88;;;0.39;68.63
60974;BME280;46846;51.528;5.076;2023-03-01T03:04:08;102493.44;;;0.34;68.79
60974;BME280;46846;51.528;5.076;2023-03-01T03:06:35;102494.22;;;0.32;68.97
60974;BME280;46846;51.528;5.076;2023-03-01T03:09:00;102494.28;;;0.33;68.81
60974;BME280;46846;51.528;5.076;2023-03-01T03:11:26;102491.66;;;0.33;68.77
60974;BME280;46846;51.528;5.076;2023-03-01T03:13:51;102481.19;;;0.33;68.88
60974;BME280;46846;51.528;5.076;2023-03-01T03:16:17;102474.06;;;0.29;69.13
60974;BME280;46846;51.528;5.076;2023-03-01T03:18:43;102474.06;;;0.29;68.64
60974;BME280;46846;51.528;5.076;2023-03-01T03:21:10;102472.41;;;0.31;68.73
60974;BME280;46846;51.528;5.076;2023-03-01T03:23:36;102475.75;;;0.27;69.14
60974;BME280;46846;51.528;5.076;2023-03-01T03:26:02;102476.59;;;0.26;69.30
60974;BME280;46846;51.528;5.076;2023-03-01T03:28:30;102475.75;;;0.27;68.74
60974;BME280;46846;51.528;5.076;2023-03-01T03:30:58;102477.28;;;0.20;69.43
60974;BME280;46846;51.528;5.076;2023-03-01T03:33:31;102468.50;;;0.20;68.93
60974;BME280;46846;51.528;5.076;2023-03-01T03:35:57;102477.28;;;0.20;68.65
60974;BME280;46846;51.528;5.076;2023-03-01T03:38:22;102475.53;;;0.21;68.87
60974;BME280;46846;51.528;5.076;2023-03-01T03:40:59;102476.13;;;0.13;69.27
60974;BME280;46846;51.528;5.076;2023-03-01T03:43:29;102468.28;;;0.13;69.34
60974;BME280;46846;51.528;5.076;2023-03-01T03:45:54;102474.38;;;0.12;69.51
60974;BME280;46846;51.528;5.076;2023-03-01T03:48:22;102470.06;;;0.15;69.23
60974;BME280;46846;51.528;5.076;2023-03-01T03:50:50;102472.38;;;0.05;69.61
60974;BME280;46846;51.528;5.076;2023-03-01T03:53:17;102468.06;;;0.07;69.47
60974;BME280;46846;51.528;5.076;2023-03-01T03:55:43;102462.78;;;0.06;69.76
60974;BME280;46846;51.528;5.076;2023-03-01T03:58:10;102467.97;;;0.04;69.26
60974;BME280;46846;51.528;5.076;2023-03-01T04:00:38;102471.44;;;0.03;69.34
60974;BME280;46846;51.528;5.076;2023-03-01T04:03:04;102471.53;;;0.06;69.34
60974;BME280;46846;51.528;5.076;2023-03-01T04:05:30;102463.66;;;0.06;69.33
60974;BME280;46846;51.528;5.076;2023-03-01T04:07:56;102468.88;;;0.05;69.78
60974;BME280;46846;51.528;5.076;2023-03-01T04:10:33;102462.72;;;0.04;69.71
60974;BME280;46846;51.528;5.076;2023-03-01T04:12:59;102465.28;;;0.03;69.32
60974;BME280;46846;51.528;5.076;2023-03-01T04:15:25;102452.16;;;0.01;69.12
60974;BME280;46846;51.528;5.076;2023-03-01T04:17:52;102456.59;;;0.04;69.50
60974;BME280;46846;51.528;5.076;2023-03-01T04:20:24;102451.19;;;-0.01;69.47
60974;BME280;46846;51.528;5.076;2023-03-01T04:22:58;102450.41;;;0.00;69.71
60974;BME280;46846;51.528;5.076;2023-03-01T04:25:24;102451.09;;;-0.04;69.60
60974;BME280;46846;51.528;5.076;2023-03-01T04:27:49;102454.66;;;-0.02;69.34
60974;BME280;46846;51.528;5.076;2023-03-01T04:30:15;102447.56;;;-0.06;69.71
60974;BME280;46846;51.528;5.076;2023-03-01T04:32:41;102447.59;;;-0.05;69.99
60974;BME280;46846;51.528;5.076;2023-03-01T04:35:06;102451.81;;;-0.08;69.64
60974;BME280;46846;51.528;5.076;2023-03-01T04:37:32;102459.72;;;-0.07;69.65
60974;BME280;46846;51.528;5.076;2023-03-01T04:39:57;102454.41;;;-0.10;69.76
60974;BME280;46846;51.528;5.076;2023-03-01T04:42:23;102457.88;;;-0.09;69.96
60974;BME280;46846;51.528;5.076;2023-03-01T04:44:48;102455.25;;;-0.11;69.90
60974;BME280;46846;51.528;5.076;2023-03-01T04:47:16;102450.78;;;-0.13;70.12
60974;BME280;46846;51.528;5.076;2023-03-01T04:49:42;102449.03;;;-0.13;69.71
60974;BME280;46846;51.528;5.076;2023-03-01T04:52:07;102446.19;;;-0.19;70.34
60974;BME280;46846;51.528;5.076;2023-03-01T04:54:35;102441.16;;;-0.15;70.38
60974;BME280;46846;51.528;5.076;2023-03-01T04:57:02;102434.94;;;-0.17;70.04
60974;BME280;46846;51.528;5.076;2023-03-01T04:59:28;102434.25;;;-0.12;70.11
60974;BME280;46846;51.528;5.076;2023-03-01T05:01:55;102427.31;;;-0.10;69.29
60974;BME280;46846;51.528;5.076;2023-03-01T05:04:22;102425.47;;;-0.15;69.84
60974;BME280;46846;51.528;5.076;2023-03-01T05:06:47;102419.41;;;-0.12;69.30
60974;BME280;46846;51.528;5.076;2023-03-01T05:09:13;102415.88;;;-0.14;69.60
60974;BME280;46846;51.528;5.076;2023-03-01T05:11:38;102414.63;;;-0.24;69.54
60974;BME280;46846;51.528;5.076;2023-03-01T05:14:05;102416.47;;;-0.21;69.41
60974;BME280;46846;51.528;5.076;2023-03-01T05:16:31;102414.00;;;-0.18;69.23
60974;BME280;46846;51.528;5.076;2023-03-01T05:18:57;102420.88;;;-0.20;69.79
60974;BME280;46846;51.528;5.076;2023-03-01T05:21:22;102420.22;;;-0.15;69.58
60974;BME280;46846;51.528;5.076;2023-03-01T05:23:48;102410.25;;;-0.25;69.34
60974;BME280;46846;51.528;5.076;2023-03-01T05:26:15;102412.03;;;-0.24;69.69
60974;BME280;46846;51.528;5.076;2023-03-01T05:28:41;102408.69;;;-0.20;69.33
60974;BME280;46846;51.528;5.076;2023-03-01T05:31:07;102402.53;;;-0.22;69.42
60974;BME280;46846;51.528;5.076;2023-03-01T05:33:39;102403.31;;;-0.24;69.57
60974;BME280;46846;51.528;5.076;2023-03-01T05:36:06;102389.38;;;-0.23;69.46
60974;BME280;46846;51.528;5.076;2023-03-01T05:38:32;102389.72;;;-0.38;70.24
60974;BME280;46846;51.528;5.076;2023-03-01T05:40:58;102379.25;;;-0.38;70.05
60974;BME280;46846;51.528;5.076;2023-03-01T05:43:23;102372.31;;;-0.38;70.11
60974;BME280;46846;51.528;5.076;2023-03-01T05:45:49;102379.38;;;-0.35;70.13
60974;BME280;46846;51.528;5.076;2023-03-01T05:48:14;102375.84;;;-0.36;70.04
60974;BME280;46846;51.528;5.076;2023-03-01T05:50:42;102381.88;;;-0.38;69.58
60974;BME280;46846;51.528;5.076;2023-03-01T05:53:14;102372.38;;;-0.36;69.81
60974;BME280;46846;51.528;5.076;2023-03-01T05:55:41;102375.00;;;-0.35;70.00
60974;BME280;46846;51.528;5.076;2023-03-01T05:58:11;102377.69;;;-0.33;69.81
60974;BME280;46846;51.528;5.076;2023-03-01T06:00:36;102374.19;;;-0.34;70.04
60974;BME280;46846;51.528;5.076;2023-03-01T06:03:02;102375.91;;;-0.34;69.92
60974;BME280;46846;51.528;5.076;2023-03-01T06:05:28;102373.22;;;-0.37;69.54
60974;BME280;46846;51.528;5.076;2023-03-01T06:07:54;102379.22;;;-0.40;69.95
60974;BME280;46846;51.528;5.076;2023-03-01T06:10:21;102376.63;;;-0.38;69.50
60974;BME280;46846;51.528;5.076;2023-03-01T06:12:47;102380.09;;;-0.39;69.72
60974;BME280;46846;51.528;5.076;2023-03-01T06:15:14;102382.69;;;-0.39;69.38
60974;BME280;46846;51.528;5.076;2023-03-01T06:17:42;102379.06;;;-0.45;69.79
60974;BME280;46846;51.528;5.076;2023-03-01T06:20:10;102376.47;;;-0.43;69.96
60974;BME280;46846;51.528;5.076;2023-03-01T06:22:36;102375.53;;;-0.45;69.89
60974;BME280;46846;51.528;5.076;2023-03-01T06:25:01;102377.16;;;-0.49;69.84
60974;BME280;46846;51.528;5.076;2023-03-01T06:27:26;102381.44;;;-0.51;70.36
60974;BME280;46846;51.528;5.076;2023-03-01T06:29:52;102375.25;;;-0.53;70.08
60974;BME280;46846;51.528;5.076;2023-03-01T06:32:17;102376.69;;;-0.61;70.23
60974;BME280;46846;51.528;5.076;2023-03-01T06:34:43;102380.47;;;-0.53;69.81
60974;BME280;46846;51.528;5.076;2023-03-01T06:37:09;102383.16;;;-0.51;70.13
60974;BME280;46846;51.528;5.076;2023-03-01T06:39:34;102376.03;;;-0.56;69.88
60974;BME280;46846;51.528;5.076;2023-03-01T06:42:00;102385.69;;;-0.53;69.70
60974;BME280;46846;51.528;5.076;2023-03-01T06:44:25;102389.22;;;-0.52;69.96
60974;BME280;46846;51.528;5.076;2023-03-01T06:46:51;102393.59;;;-0.51;70.25
60974;BME280;46846;51.528;5.076;2023-03-01T06:49:16;102391.13;;;-0.48;69.65
60974;BME280;46846;51.528;5.076;2023-03-01T06:51:43;102389.06;;;-0.57;70.20
60974;BME280;46846;51.528;5.076;2023-03-01T06:54:08;102392.66;;;-0.53;69.85
60974;BME280;46846;51.528;5.076;2023-03-01T06:56:33;102390.00;;;-0.55;70.11
60974;BME280;46846;51.528;5.076;2023-03-01T06:58:59;102397.97;;;-0.52;70.04
60974;BME280;46846;51.528;5.076;2023-03-01T07:01:24;102399.63;;;-0.54;70.05
60974;BME280;46846;51.528;5.076;2023-03-01T07:03:50;102399.75;;;-0.51;69.88
60974;BME280;46846;51.528;5.076;2023-03-01T07:06:15;102395.44;;;-0.49;69.50
60974;BME280;46846;51.528;5.076;2023-03-01T07:08:41;102391.84;;;-0.52;69.56
60974;BME280;46846;51.528;5.076;2023-03-01T07:11:06;102397.13;;;-0.51;69.55
60974;BME280;46846;51.528;5.076;2023-03-01T07:13:32;102392.75;;;-0.52;69.59
60974;BME280;46846;51.528;5.076;2023-03-01T07:15:57;102384.81;;;-0.53;69.39
60974;BME280;46846;51.528;5.076;2023-03-01T07:18:23;102385.69;;;-0.53;69.99
60974;BME280;46846;51.528;5.076;2023-03-01T07:20:49;102382.28;;;-0.52;69.55
60974;BME280;46846;51.528;5.076;2023-03-01T07:23:14;102384.22;;;-0.46;69.71
60974;BME280;46846;51.528;5.076;2023-03-01T07:25:40;102378.84;;;-0.49;69.25
60974;BME280;46846;51.528;5.076;2023-03-01T07:28:05;102383.22;;;-0.50;69.67
60974;BME280;46846;51.528;5.076;2023-03-01T07:30:31;102385.06;;;-0.47;69.32
60974;BME280;46846;51.528;5.076;2023-03-01T07:32:57;102387.53;;;-0.50;69.23
60974;BME280;46846;51.528;5.076;2023-03-01T07:35:24;102396.28;;;-0.50;69.58
60974;BME280;46846;51.528;5.076;2023-03-01T07:37:50;102394.50;;;-0.51;69.53
60974;BME280;46846;51.528;5.076;2023-03-01T07:40:16;102392.84;;;-0.49;69.73
60974;BME280;46846;51.528;5.076;2023-03-01T07:42:41;102397.84;;;-0.55;69.49
60974;BME280;46846;51.528;5.076;2023-03-01T07:45:07;102396.16;;;-0.53;69.38
60974;BME280;46846;51.528;5.076;2023-03-01T07:47:33;102395.16;;;-0.57;69.84
60974;BME280;46846;51.528;5.076;2023-03-01T07:49:58;102394.34;;;-0.56;69.16
60974;BME280;46846;51.528;5.076;2023-03-01T07:52:23;102392.50;;;-0.58;69.16
60974;BME280;46846;51.528;5.076;2023-03-01T07:54:49;102400.34;;;-0.58;69.02
60974;BME280;46846;51.528;5.076;2023-03-01T07:57:14;102398.75;;;-0.54;69.20
60974;BME280;46846;51.528;5.076;2023-03-01T07:59:40;102402.72;;;-0.64;69.33
60974;BME280;46846;51.528;5.076;2023-03-01T08:02:05;102398.38;;;-0.64;69.13
60974;BME280;46846;51.528;5.076;2023-03-01T08:04:32;102401.28;;;-0.56;68.23
60974;BME280;46846;51.528;5.076;2023-03-01T08:06:58;102400.59;;;-0.52;67.49
60974;BME280;46846;51.528;5.076;2023-03-01T08:09:24;102405.69;;;-0.55;68.31
60974;BME280;46846;51.528;5.076;2023-03-01T08:11:49;102401.19;;;-0.59;67.57
60974;BME280;46846;51.528;5.076;2023-03-01T08:14:14;102401.78;;;-0.66;68.86
60974;BME280;46846;51.528;5.076;2023-03-01T08:16:40;102397.59;;;-0.61;67.88
60974;BME280;46846;51.528;5.076;2023-03-01T08:19:10;102405.44;;;-0.61;67.45
60974;BME280;46846;51.528;5.076;2023-03-01T08:21:36;102401.06;;;-0.62;65.86
60974;BME280;46846;51.528;5.076;2023-03-01T08:24:03;102395.88;;;-0.61;65.19
60974;BME280;46846;51.528;5.076;2023-03-01T08:26:30;102390.59;;;-0.62;65.86
60974;BME280;46846;51.528;5.076;2023-03-01T08:28:56;102402.06;;;-0.59;64.80
60974;BME280;46846;51.528;5.076;2023-03-01T08:31:30;102391.38;;;-0.65;64.80
60974;BME280;46846;51.528;5.076;2023-03-01T08:33:58;102398.34;;;-0.65;66.29
60974;BME280;46846;51.528;5.076;2023-03-01T08:36:30;102393.94;;;-0.66;65.87
60974;BME280;46846;51.528;5.076;2023-03-01T08:38:56;102390.50;;;-0.65;63.58
60974;BME280;46846;51.528;5.076;2023-03-01T08:41:22;102392.94;;;-0.70;65.71
60974;BME280;46846;51.528;5.076;2023-03-01T08:43:47;102395.59;;;-0.69;64.20
60974;BME280;46846;51.528;5.076;2023-03-01T08:46:13;102386.91;;;-0.67;64.88
60974;BME280;46846;51.528;5.076;2023-03-01T08:48:38;102389.44;;;-0.71;64.44
60974;BME280;46846;51.528;5.076;2023-03-01T08:51:15;102384.38;;;-0.66;64.20
60974;BME280;46846;51.528;5.076;2023-03-01T08:53:41;102385.13;;;-0.69;65.66
60974;BME280;46846;51.528;5.076;2023-03-01T08:56:07;102390.38;;;-0.69;67.04
60974;BME280;46846;51.528;5.076;2023-03-01T08:58:33;102377.13;;;-0.73;66.14
60974;BME280;46846;51.528;5.076;2023-03-01T09:00:58;102372.03;;;-0.70;64.92
60974;BME280;46846;51.528;5.076;2023-03-01T09:03:25;102372.13;;;-0.67;64.55
60974;BME280;46846;51.528;5.076;2023-03-01T09:05:51;102361.50;;;-0.72;65.95
60974;BME280;46846;51.528;5.076;2023-03-01T09:08:17;102355.69;;;-0.64;64.58
60974;BME280;46846;51.528;5.076;2023-03-01T09:10:43;102356.97;;;-0.76;66.25
60974;BME280;46846;51.528;5.076;2023-03-01T09:13:09;102351.28;;;-0.65;63.61
60974;BME280;46846;51.528;5.076;2023-03-01T09:15:37;102351.28;;;-0.65;62.76
60974;BME280;46846;51.528;5.076;2023-03-01T09:18:02;102351.31;;;-0.64;62.59
60974;BME280;46846;51.528;5.076;2023-03-01T09:20:28;102340.81;;;-0.65;65.04
60974;BME280;46846;51.528;5.076;2023-03-01T09:22:53;102343.44;;;-0.65;65.74
60974;BME280;46846;51.528;5.076;2023-03-01T09:25:18;102343.53;;;-0.62;63.56
60974;BME280;46846;51.528;5.076;2023-03-01T09:27:44;102341.69;;;-0.65;64.37
60974;BME280;46846;51.528;5.076;2023-03-01T09:30:10;102339.25;;;-0.60;62.30
60974;BME280;46846;51.528;5.076;2023-03-01T09:32:35;102327.06;;;-0.60;61.52
60974;BME280;46846;51.528;5.076;2023-03-01T09:35:01;102327.25;;;-0.55;61.24
60974;BME280;46846;51.528;5.076;2023-03-01T09:37:29;102323.47;;;-0.63;65.69
60974;BME280;46846;51.528;5.076;2023-03-01T09:39:54;102324.41;;;-0.61;61.87
60974;BME280;46846;51.528;5.076;2023-03-01T09:42:20;102324.56;;;-0.57;61.31
60974;BME280;46846;51.528;5.076;2023-03-01T09:44:57;102322.75;;;-0.59;64.59
60974;BME280;46846;51.528;5.076;2023-03-01T09:47:28;102317.72;;;-0.53;60.29
60974;BME280;46846;51.528;5.076;2023-03-01T09:50:14;102316.91;;;-0.52;60.92
60974;BME280;46846;51.528;5.076;2023-03-01T09:53:10;102312.59;;;-0.50;61.32
60974;BME280;46846;51.528;5.076;2023-03-01T10:01:38;102310.63;;;-0.57;62.57
60974;BME280;46846;51.528;5.076;2023-03-01T10:06:38;102309.06;;;-0.52;58.28
60974;BME280;46846;51.528;5.076;2023-03-01T10:09:13;102304.81;;;-0.48;62.04
60974;BME280;46846;51.528;5.076;2023-03-01T10:11:48;102303.03;;;-0.49;62.69
60974;BME280;46846;51.528;5.076;2023-03-01T10:14:36;102298.31;;;-0.60;63.87
60974;BME280;46846;51.528;5.076;2023-03-01T10:19:51;102298.63;;;-0.50;62.59
60974;BME280;46846;51.528;5.076;2023-03-01T10:22:22;102291.63;;;-0.51;60.08
60974;BME280;46846;51.528;5.076;2023-03-01T10:24:50;102286.69;;;-0.44;59.44
60974;BME280;46846;51.528;5.076;2023-03-01T10:27:25;102289.50;;;-0.37;58.71
60974;BME280;46846;51.528;5.076;2023-03-01T10:30:11;102286.06;;;-0.36;58.85
60974;BME280;46846;51.528;5.076;2023-03-01T10:32:41;102281.66;;;-0.37;58.25
60974;BME280;46846;51.528;5.076;2023-03-01T10:35:25;102274.78;;;-0.34;58.68
60974;BME280;46846;51.528;5.076;2023-03-01T10:38:10;102268.84;;;-0.30;59.18
60974;BME280;46846;51.528;5.076;2023-03-01T10:43:17;102263.53;;;-0.31;57.20
60974;BME280;46846;51.528;5.076;2023-03-01T10:45:42;102260.25;;;-0.25;58.42
60974;BME280;46846;51.528;5.076;2023-03-01T10:50:33;102264.59;;;-0.26;61.84
60974;BME280;46846;51.528;5.076;2023-03-01T10:53:02;102255.22;;;-0.19;59.44
60974;BME280;46846;51.528;5.076;2023-03-01T10:55:35;102248.34;;;-0.16;60.43
60974;BME280;46846;51.528;5.076;2023-03-01T10:58:27;102246.34;;;-0.24;62.06
60974;BME280;46846;51.528;5.076;2023-03-01T11:01:04;102238.78;;;-0.15;59.82
60974;BME280;46846;51.528;5.076;2023-03-01T11:03:36;102244.16;;;-0.10;57.76
60974;BME280;46846;51.528;5.076;2023-03-01T11:08:44;102248.53;;;-0.11;58.05
60974;BME280;46846;51.528;5.076;2023-03-01T11:14:13;102246.06;;;-0.06;58.39
60974;BME280;46846;51.528;5.076;2023-03-01T11:16:42;102253.06;;;-0.05;56.30
60974;BME280;46846;51.528;5.076;2023-03-01T11:21:36;102249.81;;;0.02;57.85
60974;BME280;46846;51.528;5.076;2023-03-01T11:24:04;102257.66;;;0.02;60.32
60974;BME280;46846;51.528;5.076;2023-03-01T11:26:36;102235.88;;;0.03;56.86
60974;BME280;46846;51.528;5.076;2023-03-01T11:29:09;102234.19;;;0.05;62.17
60974;BME280;46846;51.528;5.076;2023-03-01T11:31:37;102243.59;;;-0.02;58.64
60974;BME280;46846;51.528;5.076;2023-03-01T11:34:14;102234.19;;;0.05;58.48
60974;BME280;46846;51.528;5.076;2023-03-01T11:36:45;102229.09;;;0.10;57.69
60974;BME280;46846;51.528;5.076;2023-03-01T11:42:15;102221.09;;;0.05;57.25
60974;BME280;46846;51.528;5.076;2023-03-01T11:44:44;102213.44;;;0.11;56.85
60974;BME280;46846;51.528;5.076;2023-03-01T11:47:15;102233.06;;;-0.03;63.48
60974;BME280;46846;51.528;5.076;2023-03-01T12:00:41;102215.56;;;0.23;55.88
60974;BME280;46846;51.528;5.076;2023-03-01T12:14:02;102203.44;;;0.27;57.75
60974;BME280;46846;51.528;5.076;2023-03-01T12:22:29;102188.91;;;0.37;55.52
60974;BME280;46846;51.528;5.076;2023-03-01T12:25:22;102185.38;;;0.35;61.12
60974;BME280;46846;51.528;5.076;2023-03-01T12:38:33;102172.16;;;0.32;60.25
60974;BME280;46846;51.528;5.076;2023-03-01T12:41:15;102174.78;;;0.32;62.52
60974;BME280;46846;51.528;5.076;2023-03-01T12:46:32;102165.47;;;0.42;61.51
60974;BME280;46846;51.528;5.076;2023-03-01T12:49:08;102166.91;;;0.30;65.60
60974;BME280;46846;51.528;5.076;2023-03-01T12:51:37;102155.06;;;0.45;59.95
60974;BME280;46846;51.528;5.076;2023-03-01T12:54:30;102161.34;;;0.50;58.59
60974;BME280;46846;51.528;5.076;2023-03-01T12:57:53;102151.88;;;0.55;61.22
60974;BME280;46846;51.528;5.076;2023-03-01T13:00:22;102148.59;;;0.62;56.47
60974;BME280;46846;51.528;5.076;2023-03-01T13:08:36;102135.38;;;0.58;63.01
60974;BME280;46846;51.528;5.076;2023-03-01T13:11:06;102127.53;;;0.59;59.60
60974;BME280;46846;51.528;5.076;2023-03-01T13:13:37;102121.56;;;0.63;60.96
60974;BME280;46846;51.528;5.076;2023-03-01T13:16:43;102105.97;;;0.68;56.95
60974;BME280;46846;51.528;5.076;2023-03-01T13:19:21;102107.91;;;0.75;55.52
60974;BME280;46846;51.528;5.076;2023-03-01T13:21:49;102103.47;;;0.73;60.35
60974;BME280;46846;51.528;5.076;2023-03-01T13:29:53;102093.06;;;0.76;56.16
60974;BME280;46846;51.528;5.076;2023-03-01T13:34:46;102094.00;;;0.78;56.22
60974;BME280;46846;51.528;5.076;2023-03-01T13:37:21;102093.06;;;0.76;62.30
60974;BME280;46846;51.528;5.076;2023-03-01T13:39:46;102091.28;;;0.75;57.22
60974;BME280;46846;51.528;5.076;2023-03-01T13:42:36;102084.44;;;0.80;56.70
60974;BME280;46846;51.528;5.076;2023-03-01T13:45:04;102073.03;;;0.78;56.64
60974;BME280;46846;51.528;5.076;2023-03-01T13:47:30;102077.63;;;0.53;65.35
60974;BME280;46846;51.528;5.076;2023-03-01T13:50:00;102075.81;;;0.52;63.14
60974;BME280;46846;51.528;5.076;2023-03-01T13:52:37;102065.91;;;0.72;56.96
60974;BME280;46846;51.528;5.076;2023-03-01T13:57:57;102061.47;;;0.70;58.20
60974;BME280;46846;51.528;5.076;2023-03-01T14:00:38;102060.81;;;0.78;56.95
60974;BME280;46846;51.528;5.076;2023-03-01T14:05:34;102041.88;;;0.89;55.72
60974;BME280;46846;51.528;5.076;2023-03-01T14:08:02;102047.16;;;0.90;56.47
60974;BME280;46846;51.528;5.076;2023-03-01T14:10:35;102036.63;;;0.89;55.86
60974;BME280;46846;51.528;5.076;2023-03-01T14:19:05;102030.53;;;0.90;57.24
60974;BME280;46846;51.528;5.076;2023-03-01T14:21:33;102031.19;;;0.81;61.73
60974;BME280;46846;51.528;5.076;2023-03-01T14:24:00;102024.66;;;0.99;55.96
60974;BME280;46846;51.528;5.076;2023-03-01T14:26:26;102029.09;;;1.03;56.93
60974;BME280;46846;51.528;5.076;2023-03-01T14:28:51;102021.34;;;1.07;55.60
60974;BME280;46846;51.528;5.076;2023-03-01T14:31:36;102022.28;;;1.09;56.97
60974;BME280;46846;51.528;5.076;2023-03-01T14:34:04;102015.25;;;1.08;57.19
60974;BME280;46846;51.528;5.076;2023-03-01T14:36:32;102007.47;;;1.12;57.96
60974;BME280;46846;51.528;5.076;2023-03-01T14:38:58;102003.94;;;1.09;60.37
60974;BME280;46846;51.528;5.076;2023-03-01T14:41:32;102005.88;;;1.18;56.16
60974;BME280;46846;51.528;5.076;2023-03-01T14:44:06;101996.94;;;1.10;58.16
60974;BME280;46846;51.528;5.076;2023-03-01T14:46:38;101998.00;;;1.18;54.67
60974;BME280;46846;51.528;5.076;2023-03-01T14:49:16;101992.84;;;1.21;58.53
60974;BME280;46846;51.528;5.076;2023-03-01T14:51:50;101991.13;;;1.23;55.55